Time;durP1;ratioP1;P1;durP2;ratioP2;P2;SDS_P1;SDS_P2;PMS_P1;PMS_P2;Temp;Humidity;BMP_temperature;BMP_pressure;BME280_temperature;BME280_humidity;BME280_pressure;Samples;Min_cycle;Max_cycle;Signal;HPM_P1;HPM_P2
2021/10/17 00:00:12;;;;;;;13.93;6.80;;;;;;;8.23;84.78;100893.81;5018767;28;20518;-52
2021/10/17 00:02:42;;;;;;;16.10;6.63;;;;;;;8.20;85.42;100890.41;5017953;28;20062;-53
2021/10/17 00:05:58;;;;;;;13.55;6.70;;;;;;;8.18;85.12;100893.13;5007774;28;20065;-54
2021/10/17 00:08:25;;;;;;;12.90;7.10;;;;;;;8.18;85.26;100894.88;5023471;28;20535;-51
2021/10/17 00:10:51;;;;;;;14.52;6.20;;;;;;;8.16;85.21;100901.97;5029945;28;20049;-52
2021/10/17 00:13:18;;;;;;;15.73;6.97;;;;;;;8.04;85.41;100879.44;5020485;28;20076;-52
2021/10/17 00:15:44;;;;;;;10.10;6.78;;;;;;;8.08;85.29;100891.63;5021506;28;20045;-52
2021/10/17 00:18:11;;;;;;;17.30;7.00;;;;;;;8.04;85.55;100901.41;5027426;28;20049;-52
2021/10/17 00:20:38;;;;;;;12.00;6.50;;;;;;;8.05;86.49;100900.50;5023428;28;20049;-52
2021/10/17 00:23:04;;;;;;;14.52;6.82;;;;;;;8.07;85.82;100909.22;5022225;28;20045;-52
2021/10/17 00:25:31;;;;;;;14.38;7.20;;;;;;;8.03;85.45;100904.06;5025637;28;20520;-53
2021/10/17 00:27:58;;;;;;;13.88;6.97;;;;;;;7.99;86.07;100903.31;5027071;28;20079;-52
2021/10/17 00:30:24;;;;;;;13.27;6.78;;;;;;;7.94;86.39;100904.34;5026005;28;20041;-53
2021/10/17 00:32:51;;;;;;;14.40;7.03;;;;;;;7.90;86.67;100905.34;5020089;28;20106;-54
2021/10/17 00:35:17;;;;;;;13.48;7.80;;;;;;;7.91;87.17;100902.66;5023089;28;20788;-52
2021/10/17 00:37:44;;;;;;;15.00;7.05;;;;;;;7.92;86.76;100908.78;5025839;28;20052;-52
2021/10/17 00:40:13;;;;;;;10.75;6.80;;;;;;;7.89;87.35;100907.09;5023249;28;20045;-53
2021/10/17 00:42:41;;;;;;;11.73;6.45;;;;;;;7.88;87.69;100905.38;5019787;28;20061;-53
2021/10/17 00:45:11;;;;;;;11.82;6.38;;;;;;;7.91;87.76;100902.66;5001178;28;20065;-52
2021/10/17 00:47:37;;;;;;;13.50;6.85;;;;;;;7.90;87.36;100894.78;5004928;28;20058;-52
2021/10/17 00:50:05;;;;;;;15.38;6.22;;;;;;;7.86;87.67;100898.44;5009282;28;20057;-52
2021/10/17 00:52:34;;;;;;;14.10;7.00;;;;;;;7.85;87.80;100897.56;5021488;28;20060;-54
2021/10/17 00:55:02;;;;;;;17.60;7.15;;;;;;;7.86;87.65;100896.66;5020693;28;20065;-54
2021/10/17 00:57:28;;;;;;;13.55;6.65;;;;;;;7.87;87.86;100894.91;5021882;28;20045;-53
2021/10/17 00:59:54;;;;;;;12.32;6.70;;;;;;;7.85;87.83;100891.44;5023540;28;20049;-52
2021/10/17 01:02:21;;;;;;;12.25;7.35;;;;;;;7.84;87.75;100895.84;5023700;28;20045;-53
2021/10/17 01:04:48;;;;;;;15.43;7.30;;;;;;;7.79;87.89;100881.91;5024764;28;20277;-53
2021/10/17 01:07:14;;;;;;;12.20;6.38;;;;;;;7.75;88.55;100888.16;5021007;28;20049;-52
2021/10/17 01:09:41;;;;;;;13.77;6.93;;;;;;;7.70;88.43;100884.81;5023797;28;20060;-51
2021/10/17 01:12:08;;;;;;;12.90;7.70;;;;;;;7.72;88.69;100886.47;5024672;28;20045;-52
2021/10/17 01:14:35;;;;;;;11.02;6.82;;;;;;;7.74;88.83;100879.41;5025026;28;20053;-54
2021/10/17 01:17:02;;;;;;;13.25;6.78;;;;;;;7.77;89.03;100878.44;5024717;28;20101;-55
2021/10/17 01:19:28;;;;;;;12.18;7.22;;;;;;;7.81;88.68;100879.25;5025433;28;20517;-52
2021/10/17 01:21:55;;;;;;;13.00;6.75;;;;;;;7.80;88.80;100877.50;5023976;28;20052;-52
2021/10/17 01:24:22;;;;;;;14.57;7.65;;;;;;;7.82;88.81;100880.97;4998833;28;20125;-58
2021/10/17 01:26:48;;;;;;;14.43;7.30;;;;;;;7.81;88.91;100882.75;5022064;28;20052;-55
2021/10/17 01:29:15;;;;;;;13.85;7.38;;;;;;;7.84;88.60;100871.25;5034917;28;20054;-55
2021/10/17 01:31:41;;;;;;;13.88;7.40;;;;;;;7.85;88.75;100872.97;5030739;28;20136;-57
2021/10/17 01:34:09;;;;;;;16.33;7.47;;;;;;;7.87;88.57;100876.44;5024128;28;20184;-56
2021/10/17 01:36:37;;;;;;;13.25;7.18;;;;;;;7.84;88.63;100874.75;5030046;28;20380;-53
2021/10/17 01:39:09;;;;;;;13.05;7.30;;;;;;;7.85;88.84;100873.84;5036338;28;20045;-54
2021/10/17 01:41:36;;;;;;;15.18;7.40;;;;;;;7.88;88.69;100868.47;5037984;28;20148;-54
2021/10/17 01:44:07;;;;;;;14.98;7.15;;;;;;;7.89;88.24;100870.19;5019923;28;20045;-54
2021/10/17 01:46:35;;;;;;;14.48;7.25;;;;;;;7.93;88.41;100879.75;5029466;28;20060;-52
2021/10/17 01:49:07;;;;;;;12.65;7.15;;;;;;;7.94;88.33;100876.22;5026783;28;20056;-54
2021/10/17 01:51:34;;;;;;;14.93;7.63;;;;;;;7.92;88.04;100870.09;5027955;28;20048;-54
2021/10/17 01:54:03;;;;;;;14.40;7.47;;;;;;;7.91;88.21;100876.28;5018556;28;20056;-53
2021/10/17 01:56:31;;;;;;;13.57;7.07;;;;;;;7.80;88.10;100857.28;5027929;28;20048;-54
2021/10/17 01:58:57;;;;;;;14.68;7.35;;;;;;;7.95;87.93;100872.66;5030910;28;20060;-54
2021/10/17 02:01:24;;;;;;;15.45;6.97;;;;;;;7.93;87.99;100869.19;5025259;28;20049;-52
2021/10/17 02:03:50;;;;;;;10.93;6.82;;;;;;;7.92;88.20;100870.09;5024713;28;20056;-52
2021/10/17 02:06:17;;;;;;;13.60;7.10;;;;;;;7.93;88.36;100865.69;5023531;28;20045;-53
2021/10/17 02:08:43;;;;;;;13.77;7.03;;;;;;;7.96;88.01;100869.13;5023803;28;20526;-51
2021/10/17 02:11:10;;;;;;;14.40;7.47;;;;;;;7.97;88.22;100860.31;5020683;28;20820;-54
2021/10/17 02:13:36;;;;;;;12.48;7.13;;;;;;;8.00;88.13;100848.81;5026224;28;20047;-52
2021/10/17 02:16:03;;;;;;;15.80;7.18;;;;;;;8.00;88.05;100854.09;5030391;28;20860;-53
2021/10/17 02:18:30;;;;;;;14.05;7.03;;;;;;;7.98;88.32;100851.47;5031438;28;20839;-53
2021/10/17 02:20:56;;;;;;;14.50;6.82;;;;;;;8.00;88.07;100854.09;5025871;28;20044;-54
2021/10/17 02:23:23;;;;;;;15.40;7.07;;;;;;;7.98;88.26;100846.22;5020299;28;20050;-53
2021/10/17 02:25:49;;;;;;;16.35;7.25;;;;;;;8.00;88.33;100848.81;5022156;28;20395;-52
2021/10/17 02:28:16;;;;;;;13.52;6.80;;;;;;;7.99;88.39;100840.03;5022127;28;20050;-53
2021/10/17 02:30:43;;;;;;;12.65;6.93;;;;;;;8.03;88.46;100838.13;5030065;28;20061;-52
2021/10/17 02:33:09;;;;;;;13.05;7.00;;;;;;;8.05;88.08;100836.31;5030258;28;20064;-52
2021/10/17 02:35:36;;;;;;;14.95;6.90;;;;;;;8.04;88.13;100842.50;5030494;28;20052;-53
2021/10/17 02:38:03;;;;;;;14.65;6.57;;;;;;;8.02;88.27;100832.03;5028828;28;20049;-54
2021/10/17 02:40:30;;;;;;;14.02;6.50;;;;;;;8.02;88.08;100834.66;5024812;28;20060;-53
2021/10/17 02:42:56;;;;;;;17.02;6.72;;;;;;;7.99;88.28;100831.25;5023783;28;20635;-53
2021/10/17 02:45:23;;;;;;;14.93;6.78;;;;;;;8.06;88.26;100832.78;5020631;28;20049;-53
2021/10/17 02:47:49;;;;;;;13.25;6.40;;;;;;;8.10;87.53;100837.94;5028913;28;20053;-53
2021/10/17 02:50:16;;;;;;;20.25;7.55;;;;;;;8.06;87.82;100841.56;5024063;28;20740;-52
2021/10/17 02:52:42;;;;;;;15.95;7.47;;;;;;;8.01;87.99;100835.59;5025715;28;20084;-52
2021/10/17 02:55:09;;;;;;;13.45;7.10;;;;;;;8.00;88.76;100840.91;5021479;28;20041;-53
2021/10/17 02:57:35;;;;;;;14.73;7.25;;;;;;;7.99;88.93;100833.88;5023952;28;20057;-52
2021/10/17 03:00:04;;;;;;;20.20;7.07;;;;;;;7.97;88.86;100839.22;5022909;28;20049;-51
2021/10/17 03:02:31;;;;;;;13.57;6.95;;;;;;;7.95;89.13;100829.59;5026309;28;20045;-53
2021/10/17 03:04:57;;;;;;;13.27;7.13;;;;;;;7.85;89.16;100825.53;5022108;28;20041;-54
2021/10/17 03:07:24;;;;;;;13.32;6.75;;;;;;;7.98;89.26;100840.94;5025544;28;20057;-52
2021/10/17 03:09:50;;;;;;;14.00;6.90;;;;;;;7.98;89.26;100835.66;5024660;28;20190;-52
2021/10/17 03:12:17;;;;;;;16.58;7.18;;;;;;;8.00;89.09;100839.13;5023330;28;20053;-52
2021/10/17 03:14:43;;;;;;;13.13;6.90;;;;;;;8.00;88.78;100839.13;5025855;28;20135;-53
2021/10/17 03:17:10;;;;;;;15.60;7.20;;;;;;;7.97;88.92;100833.06;5045456;28;20054;-54
2021/10/17 03:19:36;;;;;;;14.32;7.07;;;;;;;7.79;88.81;100804.59;5037371;28;20053;-53
2021/10/17 03:22:03;;;;;;;16.52;7.35;;;;;;;7.87;89.45;100834.25;5032935;28;20064;-53
2021/10/17 03:24:29;;;;;;;12.13;6.45;;;;;;;7.84;89.54;100832.56;5022696;28;20056;-54
2021/10/17 03:26:56;;;;;;;15.32;7.30;;;;;;;7.82;90.11;100828.25;5027957;28;20053;-57
2021/10/17 03:29:22;;;;;;;13.60;7.07;;;;;;;7.83;90.26;100833.47;5028618;28;20512;-52
2021/10/17 03:31:49;;;;;;;16.85;7.15;;;;;;;7.81;89.91;100830.00;5023974;28;20048;-52
2021/10/17 03:34:15;;;;;;;14.70;6.68;;;;;;;7.81;89.79;100822.09;5025222;28;20055;-52
2021/10/17 03:36:42;;;;;;;12.20;6.43;;;;;;;7.81;89.66;100831.78;5025482;28;20041;-52
2021/10/17 03:39:08;;;;;;;12.02;6.28;;;;;;;7.70;89.33;100809.25;5025424;28;20060;-52
2021/10/17 03:41:35;;;;;;;13.52;6.90;;;;;;;7.83;89.26;100835.25;5033147;28;20067;-52
2021/10/17 03:44:01;;;;;;;15.30;6.53;;;;;;;7.82;88.93;100834.38;5022684;28;20045;-53
2021/10/17 03:46:28;;;;;;;14.73;7.10;;;;;;;7.84;89.12;100831.69;5017668;28;20053;-52
2021/10/17 03:48:55;;;;;;;13.52;6.30;;;;;;;7.79;89.16;100829.19;5004086;28;20058;-52
2021/10/17 03:51:21;;;;;;;11.82;6.38;;;;;;;7.83;88.73;100830.84;5002621;28;20986;-52
2021/10/17 03:53:48;;;;;;;17.02;6.65;;;;;;;7.81;88.73;100830.00;5020885;28;20060;-53
2021/10/17 03:56:14;;;;;;;14.00;6.28;;;;;;;7.89;88.34;100824.50;5015501;28;20037;-53
2021/10/17 03:58:41;;;;;;;12.98;5.88;;;;;;;7.94;88.42;100825.25;5025565;28;20048;-53
2021/10/17 04:01:09;;;;;;;13.23;6.32;;;;;;;7.92;88.42;100825.28;5025627;28;20045;-52
2021/10/17 04:03:36;;;;;;;13.95;6.75;;;;;;;7.91;88.91;100822.69;5029203;28;20049;-52
2021/10/17 04:06:06;;;;;;;14.85;6.78;;;;;;;7.94;88.42;100826.09;5020687;28;20057;-51
2021/10/17 04:08:32;;;;;;;14.50;6.47;;;;;;;7.97;88.42;100826.03;5022487;28;20041;-53
2021/10/17 04:10:59;;;;;;;11.52;6.20;;;;;;;8.01;87.99;100826.81;5031340;28;20060;-54
2021/10/17 04:13:25;;;;;;;14.75;6.38;;;;;;;7.99;88.25;100821.56;5028190;28;20076;-52
2021/10/17 04:15:52;;;;;;;14.07;6.45;;;;;;;7.90;88.60;100807.78;5027131;28;20041;-57
2021/10/17 04:18:18;;;;;;;11.32;5.90;;;;;;;7.99;88.44;100829.47;5020684;28;20042;-52
2021/10/17 04:20:45;;;;;;;14.80;6.40;;;;;;;8.00;88.49;100831.22;5012149;28;20055;-54
2021/10/17 04:23:12;;;;;;;12.68;6.25;;;;;;;8.00;88.70;100823.31;5019895;28;20045;-52
2021/10/17 04:25:38;;;;;;;15.68;6.20;;;;;;;8.03;88.67;100833.72;5020699;28;20041;-52
2021/10/17 04:28:05;;;;;;;12.60;5.80;;;;;;;8.06;88.34;100832.78;5018947;28;20405;-52
2021/10/17 04:30:31;;;;;;;15.27;6.75;;;;;;;8.09;88.24;100830.94;5022528;28;20063;-54
2021/10/17 04:32:58;;;;;;;15.68;6.03;;;;;;;8.10;88.20;100830.00;5022145;28;20517;-53
2021/10/17 04:35:24;;;;;;;13.48;6.00;;;;;;;8.10;88.15;100827.38;5019322;28;20044;-52
2021/10/17 04:37:51;;;;;;;15.82;6.95;;;;;;;8.13;88.09;100828.19;5026133;28;20056;-52
2021/10/17 04:40:17;;;;;;;11.57;5.82;;;;;;;8.15;87.43;100827.25;5024206;28;20600;-52
2021/10/17 04:42:44;;;;;;;11.80;6.55;;;;;;;8.16;87.55;100831.63;5023503;28;20156;-52
2021/10/17 04:45:11;;;;;;;11.80;6.07;;;;;;;8.18;87.72;100821.88;5020413;28;20041;-52
2021/10/17 04:47:37;;;;;;;23.50;6.65;;;;;;;8.21;87.29;100823.53;5024512;28;20052;-52
2021/10/17 04:50:04;;;;;;;13.48;6.40;;;;;;;8.18;87.44;100819.25;5020289;28;20529;-54
2021/10/17 04:52:30;;;;;;;12.15;6.15;;;;;;;8.19;87.95;100822.72;5025041;28;20053;-52
2021/10/17 04:54:57;;;;;;;15.00;6.60;;;;;;;8.16;87.92;100828.13;5025564;28;20052;-52
2021/10/17 04:57:23;;;;;;;16.45;6.82;;;;;;;8.16;87.95;100828.13;5020108;28;20050;-52
2021/10/17 04:59:50;;;;;;;15.18;7.07;;;;;;;8.05;87.94;100817.88;5023539;28;20041;-54
2021/10/17 05:02:16;;;;;;;17.67;6.78;;;;;;;8.19;87.58;100833.28;5036449;28;20044;-53
2021/10/17 05:04:45;;;;;;;13.75;6.45;;;;;;;8.21;87.48;100821.78;5030527;28;20526;-52
2021/10/17 05:07:11;;;;;;;15.20;6.43;;;;;;;8.23;87.88;100824.38;5026370;28;20080;-52
2021/10/17 05:09:37;;;;;;;13.63;6.78;;;;;;;8.24;87.72;100821.69;5027841;28;20546;-54
2021/10/17 05:12:04;;;;;;;14.52;6.40;;;;;;;8.26;87.82;100832.19;5024541;28;20041;-54
2021/10/17 05:14:31;;;;;;;11.88;6.00;;;;;;;8.27;87.31;100829.50;5023998;28;20163;-54
2021/10/17 05:16:57;;;;;;;15.15;6.50;;;;;;;8.28;87.27;100828.59;5027644;28;20049;-52
2021/10/17 05:19:24;;;;;;;11.25;5.68;;;;;;;8.27;87.50;100824.22;5030744;28;20045;-52
2021/10/17 05:21:50;;;;;;;13.82;6.50;;;;;;;8.25;87.50;100823.41;5030569;28;20065;-52
2021/10/17 05:24:17;;;;;;;11.73;6.10;;;;;;;8.22;87.74;100822.63;5028984;28;20060;-53
2021/10/17 05:26:43;;;;;;;14.30;6.07;;;;;;;8.23;87.34;100824.38;5024107;28;21023;-54
2021/10/17 05:29:10;;;;;;;15.20;5.90;;;;;;;8.23;87.41;100829.63;5036488;28;20045;-53
2021/10/17 05:31:37;;;;;;;12.50;5.90;;;;;;;8.23;87.38;100827.00;5029116;28;20056;-52
2021/10/17 05:34:03;;;;;;;15.00;6.20;;;;;;;8.25;87.65;100822.53;5030554;28;20049;-53
2021/10/17 05:36:29;;;;;;;10.70;6.50;;;;;;;8.24;87.54;100826.97;5023193;28;20052;-53
2021/10/17 05:38:56;;;;;;;10.70;5.53;;;;;;;8.22;87.57;100820.84;5028984;28;20427;-53
2021/10/17 05:41:25;;;;;;;11.32;5.50;;;;;;;8.24;87.44;100826.97;5033571;28;20040;-53
2021/10/17 05:43:51;;;;;;;12.65;6.18;;;;;;;8.22;87.48;100834.06;5031153;28;20057;-53
2021/10/17 05:46:18;;;;;;;10.48;6.15;;;;;;;8.23;87.33;100840.19;5021740;28;20049;-52
2021/10/17 05:48:45;;;;;;;13.23;6.25;;;;;;;8.24;87.20;100834.88;5032180;28;20809;-52
2021/10/17 05:51:11;;;;;;;14.63;6.22;;;;;;;8.26;87.14;100837.47;5026228;28;20041;-54
2021/10/17 05:53:38;;;;;;;12.57;5.45;;;;;;;8.27;86.85;100844.47;5027121;28;20049;-53
2021/10/17 05:56:04;;;;;;;11.95;5.80;;;;;;;8.28;86.68;100844.44;5019703;28;20406;-54
2021/10/17 05:58:31;;;;;;;10.73;5.70;;;;;;;8.30;86.64;100847.91;5037180;28;20052;-52
2021/10/17 06:00:58;;;;;;;13.15;6.15;;;;;;;8.29;86.76;100847.94;5042121;28;20056;-53
2021/10/17 06:03:24;;;;;;;15.50;5.82;;;;;;;8.28;86.66;100854.13;5029091;28;20049;-53
2021/10/17 06:05:51;;;;;;;12.73;6.38;;;;;;;8.27;86.55;100858.53;5026565;28;20472;-55
2021/10/17 06:08:19;;;;;;;12.93;5.55;;;;;;;8.30;86.24;100861.09;5035688;28;20045;-52
2021/10/17 06:10:46;;;;;;;13.60;5.47;;;;;;;8.32;86.68;100866.34;5034992;28;20536;-53
2021/10/17 06:13:12;;;;;;;12.77;5.47;;;;;;;8.31;86.80;100868.09;5026907;28;20053;-54
2021/10/17 06:15:39;;;;;;;13.98;5.50;;;;;;;8.31;86.59;100868.09;5017636;28;20409;-53
2021/10/17 06:18:05;;;;;;;12.48;5.80;;;;;;;8.34;86.75;100870.66;5022644;28;20045;-53
2021/10/17 06:20:32;;;;;;;13.55;5.45;;;;;;;8.34;86.66;100881.19;5022835;28;20050;-53
2021/10/17 06:22:58;;;;;;;13.95;6.00;;;;;;;8.34;86.86;100888.28;5018035;28;20387;-54
2021/10/17 06:25:25;;;;;;;14.95;5.78;;;;;;;8.36;86.82;100891.72;5016288;28;20053;-53
2021/10/17 06:27:51;;;;;;;10.88;5.82;;;;;;;8.35;86.60;100888.22;5014923;28;20041;-54
2021/10/17 06:30:18;;;;;;;13.80;5.90;;;;;;;8.37;86.59;100894.31;5022853;28;20422;-54
2021/10/17 06:32:44;;;;;;;13.43;6.00;;;;;;;8.38;86.74;100885.47;5024668;28;20057;-54
2021/10/17 06:35:13;;;;;;;11.82;5.55;;;;;;;8.43;87.01;100898.56;5022312;28;20053;-53
2021/10/17 06:37:40;;;;;;;14.95;6.07;;;;;;;8.44;86.91;100887.94;5023444;28;20049;-60
2021/10/17 06:40:08;;;;;;;13.88;5.70;;;;;;;8.48;86.64;100898.41;5025489;28;20049;-53
2021/10/17 06:42:34;;;;;;;11.95;5.70;;;;;;;8.51;86.30;100898.31;5027652;28;20045;-53
2021/10/17 06:45:00;;;;;;;14.82;5.93;;;;;;;8.44;86.19;100887.09;5030100;28;20060;-54
2021/10/17 06:47:27;;;;;;;10.50;5.70;;;;;;;8.59;86.13;100897.19;5022636;28;23699;-53
2021/10/17 06:49:53;;;;;;;16.10;6.13;;;;;;;8.62;85.33;100894.44;5021314;28;20049;-54
2021/10/17 06:52:20;;;;;;;11.93;4.90;;;;;;;8.64;85.26;100895.25;5018487;28;20048;-52
2021/10/17 06:54:46;;;;;;;13.00;5.93;;;;;;;8.66;85.22;100903.97;5026473;28;20120;-53
2021/10/17 06:57:13;;;;;;;15.90;5.80;;;;;;;8.72;85.21;100909.06;5012757;28;20050;-53
2021/10/17 06:59:39;;;;;;;11.95;5.38;;;;;;;8.76;84.84;100905.44;5016574;28;20607;-52
2021/10/17 07:02:06;;;;;;;12.75;5.38;;;;;;;8.81;84.42;100913.22;5020498;28;20072;-54
2021/10/17 07:04:33;;;;;;;9.50;5.47;;;;;;;8.86;84.55;100923.63;5023258;28;20457;-51
2021/10/17 07:06:59;;;;;;;11.25;5.40;;;;;;;8.93;84.96;100920.75;5012144;28;20068;-53
2021/10/17 07:09:25;;;;;;;9.02;5.22;;;;;;;9.01;83.46;100917.84;5023022;28;20060;-52
2021/10/17 07:11:52;;;;;;;10.68;5.15;;;;;;;9.03;82.76;100918.66;5020017;28;20855;-53
2021/10/17 07:14:19;;;;;;;11.88;4.97;;;;;;;9.05;82.72;100925.63;5017616;28;20441;-52
2021/10/17 07:16:45;;;;;;;10.02;5.03;;;;;;;9.08;83.04;100932.59;5018617;28;20049;-53
2021/10/17 07:19:12;;;;;;;11.90;5.32;;;;;;;9.11;82.27;100924.59;5013942;28;20098;-56
2021/10/17 07:21:38;;;;;;;11.48;4.85;;;;;;;9.15;82.32;100931.47;5018189;28;20036;-54
2021/10/17 07:24:05;;;;;;;9.75;4.95;;;;;;;9.20;82.33;100933.97;5015933;28;20057;-53
2021/10/17 07:26:31;;;;;;;10.25;4.80;;;;;;;9.24;82.05;100925.91;5012943;28;20410;-52
2021/10/17 07:28:58;;;;;;;12.90;4.85;;;;;;;9.28;81.96;100932.81;5019644;28;20404;-53
2021/10/17 07:31:24;;;;;;;9.25;4.78;;;;;;;9.32;81.61;100928.28;5019051;28;20045;-52
2021/10/17 07:33:51;;;;;;;11.93;4.78;;;;;;;9.34;81.38;100926.44;5019281;28;20054;-52
2021/10/17 07:36:17;;;;;;;11.52;4.70;;;;;;;9.41;80.97;100930.63;5014959;28;20053;-53
2021/10/17 07:38:44;;;;;;;9.43;4.22;;;;;;;9.42;80.75;100932.34;5019116;28;20049;-55
2021/10/17 07:41:10;;;;;;;10.85;4.65;;;;;;;9.47;80.23;100936.56;5018944;28;20049;-53
2021/10/17 07:43:37;;;;;;;11.50;4.30;;;;;;;9.46;80.60;100936.59;5014956;28;20067;-53
2021/10/17 07:46:04;;;;;;;11.90;5.30;;;;;;;9.52;79.73;100938.19;5018799;28;20052;-52
2021/10/17 07:48:31;;;;;;;11.77;4.85;;;;;;;9.54;79.85;100946.94;5027794;28;20172;-53
2021/10/17 07:50:57;;;;;;;10.10;4.50;;;;;;;9.54;79.94;100946.94;5021668;28;20044;-52
2021/10/17 07:53:24;;;;;;;12.13;5.00;;;;;;;9.63;79.22;100941.31;5019552;28;20041;-53
2021/10/17 07:55:50;;;;;;;11.15;4.85;;;;;;;9.62;79.81;100940.47;5016974;28;20504;-54
2021/10/17 07:58:17;;;;;;;10.60;4.45;;;;;;;9.64;79.38;100940.41;5015199;28;20362;-53
2021/10/17 08:00:43;;;;;;;11.23;4.70;;;;;;;9.68;79.03;100936.75;5017944;28;20064;-53
2021/10/17 08:03:10;;;;;;;9.52;4.65;;;;;;;9.73;79.22;100940.09;5019192;28;20481;-54
2021/10/17 08:05:37;;;;;;;11.48;5.10;;;;;;;9.83;77.96;100929.13;5018922;28;20457;-53
2021/10/17 08:08:04;;;;;;;9.60;4.40;;;;;;;9.85;78.37;100929.09;5013254;28;20053;-53
2021/10/17 08:10:30;;;;;;;10.32;4.53;;;;;;;9.85;78.10;100922.03;5020452;28;20056;-52
2021/10/17 08:12:59;;;;;;;10.50;4.75;;;;;;;9.90;77.94;100921.88;5017807;28;20055;-53
2021/10/17 08:15:26;;;;;;;9.82;5.05;;;;;;;9.94;78.34;100931.41;5024899;28;20111;-54
2021/10/17 08:17:54;;;;;;;10.38;4.75;;;;;;;9.98;78.17;100927.72;5023612;28;20040;-54
2021/10/17 08:20:21;;;;;;;11.00;5.07;;;;;;;10.03;78.38;100925.78;5028353;28;20374;-53
2021/10/17 08:22:47;;;;;;;9.40;4.70;;;;;;;10.10;77.38;100916.69;5030264;28;20060;-53
2021/10/17 08:25:14;;;;;;;9.13;4.60;;;;;;;10.12;77.20;100920.16;5028515;28;20044;-53
2021/10/17 08:27:41;;;;;;;12.98;4.60;;;;;;;10.14;77.00;100920.97;5026747;28;20107;-54
2021/10/17 08:30:09;;;;;;;10.63;4.15;;;;;;;10.16;77.22;100916.47;5033271;28;20060;-52
2021/10/17 08:32:36;;;;;;;6.95;4.25;;;;;;;10.17;76.85;100901.47;5035602;28;20518;-52
2021/10/17 08:35:02;;;;;;;8.00;4.03;;;;;;;10.34;76.68;100922.03;5028669;28;20049;-52
2021/10/17 08:37:30;;;;;;;12.57;4.72;;;;;;;10.41;75.25;100923.53;5029126;28;20048;-51
2021/10/17 08:39:56;;;;;;;10.07;4.25;;;;;;;10.42;75.77;100923.47;5034470;28;20049;-53
2021/10/17 08:42:24;;;;;;;7.55;3.80;;;;;;;10.42;75.17;100934.06;5032324;28;20061;-52
2021/10/17 08:45:04;;;;;;;7.53;3.67;;;;;;;10.49;76.19;100929.41;5030178;28;20051;-52
2021/10/17 08:47:32;;;;;;;8.43;3.67;;;;;;;10.57;75.55;100926.44;5023859;28;20051;-53
2021/10/17 08:49:59;;;;;;;8.25;4.00;;;;;;;10.59;74.97;100933.41;5034457;28;20067;-57
2021/10/17 08:52:26;;;;;;;12.95;4.63;;;;;;;10.69;73.97;100933.94;5023623;28;23002;-53
2021/10/17 08:54:52;;;;;;;12.82;5.03;;;;;;;10.69;73.42;100929.50;5034309;28;20052;-52
2021/10/17 08:57:19;;;;;;;10.27;4.72;;;;;;;10.69;73.42;100933.94;5026830;28;20049;-53
2021/10/17 08:59:49;;;;;;;10.32;5.00;;;;;;;10.71;73.82;100934.72;5038027;28;20044;-53
2021/10/17 09:02:18;;;;;;;13.27;5.07;;;;;;;10.79;73.72;100925.56;5032025;28;20421;-53
2021/10/17 09:05:04;;;;;;;12.52;4.82;;;;;;;10.93;74.00;100930.31;5038769;28;20620;-52
2021/10/17 09:07:31;;;;;;;13.60;5.18;;;;;;;11.09;73.21;100934.06;5030967;28;20478;-53
2021/10/17 09:10:09;;;;;;;8.23;4.60;;;;;;;11.30;72.41;100924.38;5028740;28;20378;-52
2021/10/17 09:12:36;;;;;;;10.40;5.15;;;;;;;11.42;71.47;100929.19;5023815;28;20063;-53
2021/10/17 09:15:22;;;;;;;12.50;5.20;;;;;;;11.67;71.00;100917.50;5019648;28;20073;-54
2021/10/17 09:18:17;;;;;;;9.93;4.95;;;;;;;11.80;70.32;100918.75;5024550;28;20049;-53
2021/10/17 09:20:47;;;;;;;11.50;5.00;;;;;;;11.85;69.42;100919.41;5038963;28;20512;-53
2021/10/17 09:23:17;;;;;;;10.18;4.47;;;;;;;11.87;69.31;100922.84;5030394;28;20048;-54
2021/10/17 09:25:44;;;;;;;;;;;;;;;11.98;69.64;100925.03;5033286;28;20056;-53
2021/10/17 09:28:14;;;;;;;12.88;4.80;;;;;;;12.00;69.24;100924.03;5025936;28;19928;-52
2021/10/17 09:30:41;;;;;;;11.52;5.43;;;;;;;12.01;68.83;100920.44;5034093;28;20068;-53
2021/10/17 09:33:24;;;;;;;9.27;4.65;;;;;;;12.00;69.73;100929.34;5024316;28;20148;-53
2021/10/17 09:35:50;;;;;;;9.10;4.18;;;;;;;12.11;68.08;100923.56;5028950;28;20103;-52
2021/10/17 09:38:20;;;;;;;13.95;4.10;;;;;;;12.20;67.98;100921.34;5024422;28;20045;-52
2021/10/17 09:40:48;;;;;;;10.95;4.53;;;;;;;12.38;66.90;100932.06;5027352;28;20049;-55
2021/10/17 09:43:33;;;;;;;12.05;4.45;;;;;;;12.33;67.19;100926.09;5024558;28;20087;-53
2021/10/17 09:46:09;;;;;;;11.48;4.88;;;;;;;12.22;67.31;100911.53;5015748;28;20049;-53
2021/10/17 09:48:36;;;;;;;10.75;4.50;;;;;;;12.38;66.92;100924.97;5020489;28;20052;-54
2021/10/17 09:51:10;;;;;;;11.50;4.72;;;;;;;12.49;66.08;100925.31;5022794;28;20053;-52
2021/10/17 09:53:47;;;;;;;11.10;4.63;;;;;;;12.79;65.81;100916.84;5020297;28;20049;-55
2021/10/17 09:56:36;;;;;;;10.05;3.90;;;;;;;13.14;64.65;100923.97;5016268;28;20045;-52
2021/10/17 09:59:10;;;;;;;7.88;4.10;;;;;;;13.52;64.61;100924.78;5015513;28;20599;-52
2021/10/17 10:01:39;;;;;;;9.50;4.80;;;;;;;13.83;62.78;100918.72;5023376;28;20516;-52
2021/10/17 10:04:10;;;;;;;9.65;3.83;;;;;;;14.16;61.72;100916.09;5017750;28;20048;-53
2021/10/17 10:06:37;;;;;;;7.43;3.80;;;;;;;14.51;59.38;100910.66;5021211;28;20053;-54
2021/10/17 10:09:06;;;;;;;10.48;4.30;;;;;;;14.72;59.21;100906.81;5030291;28;20513;-53
2021/10/17 10:11:34;;;;;;;8.80;3.72;;;;;;;15.11;56.26;100913.53;5037667;28;20413;-55
2021/10/17 10:14:05;;;;;;;9.35;4.45;;;;;;;14.95;56.77;100924.22;5037282;28;20040;-54
2021/10/17 10:16:33;;;;;;;9.30;4.05;;;;;;;14.43;58.40;100926.22;5034490;28;20049;-55
2021/10/17 10:19:08;;;;;;;8.50;4.18;;;;;;;14.14;59.56;100917.13;5023875;28;20064;-53
2021/10/17 10:21:38;;;;;;;8.95;3.70;;;;;;;13.95;60.93;100919.88;5027858;28;20041;-52
2021/10/17 10:24:11;;;;;;;9.23;4.00;;;;;;;13.93;60.96;100927.94;5040198;28;20049;-53
2021/10/17 10:26:40;;;;;;;8.07;4.05;;;;;;;13.92;60.38;100930.69;5033747;28;20444;-54
2021/10/17 10:29:09;;;;;;;7.95;4.00;;;;;;;14.06;61.47;100925.50;5029673;28;20047;-53
2021/10/17 10:31:47;;;;;;;7.78;4.13;;;;;;;14.13;59.71;100924.25;5031014;28;20409;-53
2021/10/17 10:34:23;;;;;;;10.02;3.80;;;;;;;14.13;60.67;100921.59;5030274;28;20045;-54
2021/10/17 10:36:52;;;;;;;9.20;4.18;;;;;;;14.15;60.21;100922.38;5029328;28;20049;-52
2021/10/17 10:39:23;;;;;;;8.10;4.00;;;;;;;14.06;60.04;100928.16;5021222;28;20041;-53
2021/10/17 10:41:54;;;;;;;11.02;4.20;;;;;;;14.04;60.11;100924.72;5021972;28;20499;-54
2021/10/17 10:44:21;;;;;;;9.27;4.00;;;;;;;14.08;59.29;100928.94;5042690;28;20494;-54
2021/10/17 10:46:54;;;;;;;5.47;3.30;;;;;;;13.97;58.14;100920.66;5036411;28;20489;-53
2021/10/17 10:49:45;;;;;;;6.82;3.28;;;;;;;13.79;58.73;100916.31;5031854;28;20136;-54
2021/10/17 10:52:23;;;;;;;7.65;3.30;;;;;;;13.86;59.53;100912.38;5033230;28;20053;-54
2021/10/17 10:54:51;;;;;;;7.95;3.33;;;;;;;13.88;59.83;100908.69;5036330;28;20045;-52
2021/10/17 10:57:22;;;;;;;10.90;3.85;;;;;;;13.91;58.91;100911.19;5028595;28;20042;-53
2021/10/17 11:00:07;;;;;;;7.95;3.40;;;;;;;13.81;60.19;100903.78;5029764;28;20076;-52
2021/10/17 11:02:34;;;;;;;8.85;3.20;;;;;;;13.92;60.14;100904.94;5033097;28;20359;-51
2021/10/17 11:05:16;;;;;;;7.03;3.97;;;;;;;14.04;59.22;100898.94;5025900;28;20691;-53
2021/10/17 11:07:45;;;;;;;8.70;3.45;;;;;;;14.22;58.65;100898.91;5024126;28;20492;-51
2021/10/17 11:10:25;;;;;;;6.20;3.30;;;;;;;14.38;58.09;100890.00;5040369;28;20057;-52
2021/10/17 11:12:58;;;;;;;6.90;3.22;;;;;;;14.53;56.54;100898.97;5033797;28;20063;-54
2021/10/17 11:15:30;;;;;;;4.85;2.80;;;;;;;14.63;57.51;100899.34;5029232;28;20056;-53
2021/10/17 11:17:59;;;;;;;9.15;3.20;;;;;;;14.82;55.82;100896.50;5031140;28;20052;-52
2021/10/17 11:20:29;;;;;;;7.45;3.20;;;;;;;14.94;55.59;100894.00;5030208;28;20124;-54
2021/10/17 11:22:57;;;;;;;7.63;3.20;;;;;;;14.98;55.56;100895.53;5035201;28;20059;-54
2021/10/17 11:25:25;;;;;;;7.20;3.08;;;;;;;14.99;55.36;100886.59;5028064;28;20060;-51
2021/10/17 11:27:52;;;;;;;8.13;3.08;;;;;;;15.15;55.80;100889.22;5017040;28;20045;-52